Latest Weather Observations for Bairnsdale

IDV60801

Issued at 3:03 pm EST Friday 26 May 2017 (issued every 30 minutes, with the page automatically refreshed every 10 minutes)

About weather observations | Map of weather stations | Latest weather observations for VIC | Other Formats
Station Details ID: 085279 Name: BAIRNSDALE AIRPORT Lat: -37.88 Lon: 147.57 Height: 49.4 m
Data from the previous 72 hours. | See also: Recent months at Bairnsdale
Date/Time
EST
Temp
°C
App
Temp
°C
Dew
Point
°C
Rel
Hum
%
Delta-T
°C
Wind Press
QNH
hPa
Press
MSL
hPa
Rain since
9am
mm
Dir  Spd
km/h
Gust
km/h
Spd
kts
Gust
kts
26/03:00pm 15.2 13.0 9.3 68 3.0 E 11 17 6 9 1020.4 1020.4 0.0
26/02:30pm 15.7 13.9 9.4 66 3.3 SW 9 13 5 7 1020.5 1020.5 0.0
26/02:00pm 16.3 15.1 9.5 64 3.5 S 6 11 3 6 1020.6 1020.6 0.0
26/01:30pm 15.4 13.9 9.3 67 3.1 ESE 7 9 4 5 1020.9 1020.9 0.0
26/01:00pm 15.2 13.9 9.3 68 3.0 S 6 11 3 6 1021.2 1021.2 0.0
26/12:30pm 14.8 12.9 9.2 69 2.9 S 9 13 5 7 1021.4 1021.4 0.0
26/12:00pm 14.9 12.6 9.1 68 3.0 SSW 11 17 6 9 1021.6 1021.6 0.0
26/11:30am 14.6 12.4 9.4 71 2.7 SW 11 15 6 8 1022.1 1022.1 0.0
26/11:00am 14.3 12.4 10.5 78 2.0 W 11 17 6 9 1022.4 1022.4 0.0
26/10:30am 13.9 11.7 10.9 82 1.6 WNW 13 15 7 8 1022.4 1022.4 0.0
26/10:17am 13.7 11.5 10.9 83 1.5 WNW 13 17 7 9 1022.5 1022.5 0.0
26/10:00am 13.4 10.9 10.9 85 1.3 WNW 15 19 8 10 1022.5 1022.5 0.0
26/09:38am 13.1 11.5 11.5 90 0.9 WNW 11 13 6 7 1022.4 1022.4 0.0
26/09:30am 13.1 11.9 11.7 91 0.7 NW 9 11 5 6 1022.3 1022.3 0.0
26/09:00am 12.9 11.3 11.6 92 0.7 NW 11 13 6 7 1022.2 1022.2 0.0
26/08:33am 12.7 11.4 11.3 91 0.7 W 9 13 5 7 1022.1 1022.1 0.0
26/08:30am 12.6 11.3 11.2 91 0.7 W 9 13 5 7 1022.0 1022.0 0.0
26/08:00am 12.4 9.6 11.3 93 0.6 SW 17 22 9 12 1021.7 1021.7 0.0
26/07:30am 12.3 10.2 11.2 93 0.6 WSW 13 17 7 9 1021.4 1021.4 0.0
26/07:00am 11.9 10.4 10.5 91 0.7 W 9 13 5 7 1020.9 1020.9 0.0
26/06:30am 12.1 10.4 9.8 86 1.2 WNW 9 13 5 7 1020.6 1020.6 0.0
26/06:18am 12.0 10.2 9.4 84 1.3 WNW 9 13 5 7 1020.4 1020.4 0.0
26/06:00am 12.1 9.9 9.5 84 1.3 WNW 11 13 6 7 1020.0 1020.0 0.0
26/05:30am 11.8 10.6 7.9 77 1.9 WSW 4 6 2 3 1019.6 1019.6 0.0
26/05:00am 12.2 10.0 7.7 74 2.2 SW 9 11 5 6 1019.2 1019.2 0.0
26/04:30am 12.9 9.9 7.6 70 2.6 W 13 20 7 11 1018.7 1018.7 0.0
26/04:00am 12.2 9.2 7.5 73 2.3 WNW 13 17 7 9 1018.4 1018.4 0.0
26/03:30am 11.4 8.3 7.3 76 2.0 NW 13 15 7 8 1018.4 1018.4 0.0
26/03:00am 11.6 8.5 7.1 74 2.2 NW 13 15 7 8 1018.4 1018.4 0.0
26/02:30am 12.2 9.2 7.5 73 2.3 NW 13 17 7 9 1018.4 1018.4 0.0
26/02:00am 11.3 8.1 7.0 75 2.0 NW 13 17 7 9 1018.4 1018.4 0.0
26/01:30am 10.2 7.2 6.2 76 1.9 NW 11 13 6 7 1018.3 1018.3 0.0
26/01:00am 9.8 7.2 6.0 77 1.7 NW 9 13 5 7 1018.3 1018.3 0.0
26/12:30am 9.7 6.6 5.7 76 1.8 NW 11 13 6 7 1018.5 1018.5 0.0
26/12:00am 10.4 7.8 6.0 74 2.0 NW 9 13 5 7 1018.9 1018.9 0.0
 
Date/Time
EST
Temp
°C
App
Temp
°C
Dew
Point
°C
Rel
Hum
%
Delta-T
°C
Wind Press
QNH
hPa
Press
MSL
hPa
Rain since
9am
mm
Dir  Spd
km/h
Gust
km/h
Spd
kts
Gust
kts
25/11:30pm 11.0 8.0 6.2 72 2.2 NW 11 13 6 7 1018.8 1018.8 0.0
25/11:00pm 11.2 8.7 6.7 74 2.1 NW 9 13 5 7 1018.6 1018.6 0.0
25/10:30pm 10.4 8.3 6.7 78 1.7 NW 7 11 4 6 1018.5 1018.5 0.0
25/10:00pm 10.6 8.5 6.6 76 1.9 N 7 7 4 4 1018.5 1018.5 0.0
25/09:30pm 11.0 8.6 6.9 76 1.9 N 9 9 5 5 1018.5 1018.5 0.0
25/09:00pm 11.2 9.4 7.3 77 1.9 N 6 7 3 4 1018.4 1018.4 0.0
25/08:30pm 10.8 8.4 6.9 77 1.9 NW 9 11 5 6 1018.4 1018.4 0.0
25/08:00pm 11.2 9.2 7.1 76 2.0 N 7 9 4 5 1018.5 1018.5 0.0
25/07:30pm 12.8 10.6 7.7 71 2.5 NNW 9 13 5 7 1018.6 1018.6 0.0
25/07:00pm 11.7 8.5 8.4 80 1.6 NNW 15 17 8 9 1018.6 1018.6 0.0
25/06:30pm 10.4 8.2 8.0 85 1.2 NNW 9 11 5 6 1018.7 1018.7 0.0
25/06:00pm 11.0 9.3 8.2 83 1.4 N 7 9 4 5 1018.5 1018.5 0.0
25/05:30pm 11.5 11.1 8.2 80 1.6 CALM 0 0 0 0 1018.2 1018.2 0.0
25/05:00pm 12.5 10.1 8.6 77 1.9 SW 11 13 6 7 1018.1 1018.1 0.0
25/04:30pm 14.0 11.6 8.6 70 2.7 SW 11 13 6 7 1018.1 1018.1 0.0
25/04:00pm 15.4 12.7 9.1 66 3.2 SW 13 19 7 10 1017.9 1017.9 0.0
25/03:30pm 15.9 12.9 7.7 58 4.1 WSW 13 17 7 9 1017.9 1017.9 0.0
25/03:00pm 16.0 13.3 7.5 57 4.2 SW 11 15 6 8 1017.7 1017.7 0.0
25/02:30pm 17.2 14.5 7.3 52 5.0 S 11 13 6 7 1017.6 1017.6 0.0
25/02:00pm 18.0 15.6 6.8 48 5.6 WSW 9 19 5 10 1017.8 1017.8 0.0
25/01:30pm 17.9 15.1 7.0 49 5.5 W 11 15 6 8 1017.8 1017.8 0.0
25/01:00pm 17.7 15.4 7.4 51 5.2 NW 9 13 5 7 1018.0 1018.0 0.0
25/12:30pm 17.4 15.4 6.9 50 5.2 WNW 7 15 4 8 1018.2 1018.2 0.0
25/12:00pm 17.0 15.2 7.1 52 4.9 NNW 6 9 3 5 1018.7 1018.7 0.0
25/11:30am 16.5 14.5 6.9 53 4.8 NW 7 11 4 6 1019.1 1019.1 0.0
25/11:00am 15.6 13.2 6.9 56 4.3 WNW 9 13 5 7 1019.8 1019.8 0.0
25/10:30am 15.1 11.9 6.9 58 4.0 NW 13 15 7 8 1020.2 1020.2 0.0
25/10:00am 14.3 11.5 6.9 61 3.6 NW 11 15 6 8 1020.3 1020.3 0.0
25/09:30am 12.9 9.7 6.9 67 2.9 NW 13 17 7 9 1020.4 1020.4 0.0
25/09:00am 11.8 8.5 6.3 69 2.6 NW 13 17 7 9 1020.3 1020.3 0.0
25/08:30am 10.2 6.8 6.0 75 1.9 WNW 13 15 7 8 1020.3 1020.3 0.0
25/08:00am 7.2 3.6 5.0 86 1.0 NW 13 15 7 8 1020.3 1020.3 0.0
25/07:30am 6.5 3.2 4.3 86 0.9 NW 11 15 6 8 1020.1 1020.1 0.0
25/07:00am 7.4 3.7 4.7 83 1.2 NW 13 15 7 8 1020.0 1020.0 0.0
25/06:30am 7.8 3.8 4.9 82 1.3 NW 15 17 8 9 1019.7 1019.7 0.0
25/06:00am 7.2 3.6 4.9 85 1.0 WNW 13 17 7 9 1019.4 1019.4 0.0
25/05:30am 5.8 3.1 3.5 85 1.0 NW 7 11 4 6 1019.2 1019.2 0.0
25/05:00am 7.5 3.9 5.0 84 1.1 NW 13 17 7 9 1018.9 1018.9 0.0
25/04:30am 7.4 3.7 4.7 83 1.2 NW 13 17 7 9 1018.8 1018.8 0.0
25/04:00am 8.0 4.5 5.5 84 1.1 NW 13 17 7 9 1018.7 1018.7 0.0
25/03:30am 8.4 5.3 5.5 82 1.3 NNW 11 13 6 7 1018.7 1018.7 0.0
25/03:00am 9.5 6.5 6.0 79 1.6 NNW 11 13 6 7 1018.8 1018.8 0.0
25/02:30am 8.9 6.2 5.8 81 1.4 NW 9 11 5 6 1018.8 1018.8 0.0
25/02:00am 9.9 7.2 5.7 75 1.9 NW 9 13 5 7 1018.8 1018.8 0.0
25/01:30am 10.8 7.8 5.8 71 2.3 WNW 11 15 6 8 1018.7 1018.7 0.0
25/01:00am 11.2 7.7 5.5 68 2.6 WNW 13 17 7 9 1018.6 1018.6 0.0
25/12:30am 9.6 6.5 5.4 75 1.9 WNW 11 15 6 8 1018.7 1018.7 0.0
25/12:00am 8.4 5.3 5.5 82 1.3 NW 11 13 6 7 1018.8 1018.8 0.0
 
Date/Time
EST
Temp
°C
App
Temp
°C
Dew
Point
°C
Rel
Hum
%
Delta-T
°C
Wind Press
QNH
hPa
Press
MSL
hPa
Rain since
9am
mm
Dir  Spd
km/h
Gust
km/h
Spd
kts
Gust
kts
24/11:30pm 8.7 5.6 5.4 80 1.5 NNW 11 13 6 7 1018.8 1018.8 0.0
24/11:00pm 10.3 7.3 6.1 75 1.9 WNW 11 13 6 7 1018.8 1018.8 0.0
24/10:30pm 9.2 6.3 6.5 83 1.3 NW 11 13 6 7 1018.8 1018.8 0.0
24/10:00pm 8.4 5.9 6.4 87 0.9 NW 9 11 5 6 1018.8 1018.8 0.0
24/09:30pm 8.4 6.1 5.5 82 1.3 NW 7 9 4 5 1018.7 1018.7 0.0
24/09:00pm 10.6 7.1 5.6 71 2.3 WNW 13 17 7 9 1018.6 1018.6 0.0
24/08:30pm 12.0 7.9 6.1 67 2.8 W 17 26 9 14 1018.5 1018.5 0.0
24/08:00pm 12.1 7.6 6.8 70 2.5 W 20 32 11 17 1018.3 1018.3 0.0
24/07:30pm 12.6 7.4 7.3 70 2.6 WSW 24 37 13 20 1018.2 1018.2 0.0
24/07:00pm 12.5 6.9 7.2 70 2.6 WSW 26 33 14 18 1017.8 1017.8 0.0
24/06:30pm 12.9 7.4 7.4 69 2.7 WSW 26 35 14 19 1017.7 1017.7 0.0
24/06:00pm 13.2 6.5 7.2 67 2.9 WSW 32 43 17 23 1017.1 1017.1 0.0
24/05:30pm 13.1 6.2 6.5 64 3.2 WSW 32 43 17 23 1016.5 1016.5 0.0
24/05:00pm 13.7 7.4 7.2 65 3.2 WSW 30 41 16 22 1016.1 1016.1 0.0
24/04:30pm 14.7 8.8 7.3 61 3.6 WSW 28 35 15 19 1015.7 1015.7 0.0
24/04:00pm 15.1 8.7 6.9 58 4.0 WSW 30 43 16 23 1015.1 1015.1 0.0
24/03:30pm 16.7 10.3 7.1 53 4.8 WSW 30 41 16 22 1014.5 1014.5 0.0
24/03:01pm 15.9 8.9 6.1 52 4.8 WSW 32 54 17 29 1014.0 1014.0 0.0
24/03:00pm 15.9 9.0 6.3 53 4.7 WSW 32 44 17 24 1014.0 1014.0 0.0
24/02:30pm 17.4 10.2 5.7 46 5.7 WSW 33 46 18 25 1013.6 1013.6 0.0
24/02:13pm 17.5 10.7 6.7 49 5.4 WSW 32 52 17 28 1013.3 1013.3 0.0
24/02:00pm 17.6 10.5 6.5 48 5.5 WSW 33 48 18 26 1013.3 1013.3 0.0
24/01:41pm 16.4 9.3 6.5 52 4.9 WSW 33 52 18 28 1013.1 1013.1 0.0
24/01:30pm 16.6 9.1 6.4 51 5.0 W 35 46 19 25 1013.0 1013.0 0.0
24/01:00pm 17.6 10.1 6.5 48 5.5 WSW 35 50 19 27 1013.0 1013.0 0.0
24/12:30pm 17.2 10.7 6.7 50 5.2 WSW 30 43 16 23 1013.1 1013.1 0.0
24/12:00pm 17.7 11.7 7.2 50 5.3 WSW 28 41 15 22 1013.3 1013.3 0.0
24/11:30am 17.6 13.1 8.7 56 4.6 WSW 22 32 12 17 1013.5 1013.5 0.0
24/11:00am 16.5 11.7 9.0 61 3.9 WSW 24 39 13 21 1013.8 1013.8 0.0
24/10:30am 15.9 11.2 9.1 64 3.5 WSW 24 30 13 16 1013.7 1013.7 0.0
24/10:00am 15.0 10.2 8.9 67 3.1 WSW 24 33 13 18 1013.6 1013.6 0.0
24/09:30am 13.9 10.0 8.7 71 2.6 WSW 19 26 10 14 1013.5 1013.5 0.0
24/09:00am 13.8 9.8 9.0 73 2.4 W 20 30 11 16 1013.4 1013.4 0.6
24/08:30am 12.5 9.8 9.1 80 1.7 WNW 13 17 7 9 1013.0 1013.0 0.6
24/08:00am 11.8 9.0 8.6 81 1.6 WNW 13 19 7 10 1013.0 1013.0 0.6
24/07:30am 12.0 9.3 9.0 82 1.5 W 13 17 7 9 1012.8 1012.8 0.4
24/07:00am 10.2 7.5 9.1 93 0.5 NW 13 15 7 8 1012.3 1012.3 0.4
24/06:30am 9.6 7.3 9.0 96 0.3 WNW 11 15 6 8 1011.9 1011.9 0.4
24/06:20am 9.0 6.2 8.4 96 0.3 WSW 13 17 7 9 1011.8 1011.8 0.4
24/06:00am 8.0 6.0 7.1 94 0.4 WSW 7 9 4 5 1011.4 1011.4 0.4
24/05:57am 8.4 6.5 7.5 94 0.4 WSW 7 9 4 5 1011.4 1011.4 0.4
24/05:30am 9.2 7.0 7.8 91 0.7 WNW 9 11 5 6 1011.3 1011.3 0.4
24/05:00am 10.9 9.1 9.3 90 0.8 SW 9 13 5 7 1011.4 1011.4 0.4
24/04:30am 10.8 8.2 9.2 90 0.8 NW 13 17 7 9 1011.0 1011.0 0.4
24/04:00am 11.5 9.0 9.8 89 0.9 WNW 13 24 7 13 1011.1 1011.1 0.4
24/03:30am 9.6 7.2 8.5 93 0.5 WNW 11 13 6 7 1011.1 1011.1 0.0
24/03:00am 9.8 7.4 8.7 93 0.5 NW 11 15 6 8 1011.4 1011.4 0.0
24/02:30am 9.5 8.1 8.7 95 0.4 WNW 6 11 3 6 1011.5 1011.5 0.0
24/02:00am 9.1 8.0 8.3 95 0.4 NNE 4 7 2 4 1011.6 1011.6 0.0
24/01:30am 9.4 8.0 8.8 96 0.3 SSW 6 9 3 5 1011.9 1011.9 0.0
24/01:00am 8.9 7.2 8.3 96 0.3 S 7 13 4 7 1012.4 1012.4 0.0
24/12:30am 8.6 8.2 8.2 97 0.2 CALM 0 0 0 0 1012.5 1012.5 0.0
24/12:04am 8.0 6.3 7.4 96 0.3 SSW 6 6 3 3 1012.8 1012.8 0.0
24/12:00am 7.7 6.3 7.1 96 0.3 SSW 4 6 2 3 1012.9 1012.9 0.0
 
Date/Time
EST
Temp
°C
App
Temp
°C
Dew
Point
°C
Rel
Hum
%
Delta-T
°C
Wind Press
QNH
hPa
Press
MSL
hPa
Rain since
9am
mm
Dir  Spd
km/h
Gust
km/h
Spd
kts
Gust
kts
23/11:30pm 7.8 6.4 7.1 95 0.3 ESE 4 6 2 3 1013.2 1013.2 0.0
23/11:28pm 7.5 6.0 6.8 95 0.3 ESE 4 6 2 3 1013.2 1013.2 0.0
23/11:00pm 9.3 9.0 8.7 96 0.3 CALM 0 0 0 0 1013.5 1013.5 0.0
23/10:58pm 9.4 9.1 8.8 96 0.3 CALM 0 0 0 0 1013.5 1013.5 0.0
23/10:40pm 8.0 7.4 7.2 95 0.4 CALM 0 0 0 0 1013.9 1013.9 0.0
23/10:38pm 8.0 7.4 7.2 95 0.4 CALM 0 0 0 0 1013.9 1013.9 0.0
23/10:30pm 8.0 7.3 7.1 94 0.4 CALM 0 2 0 1 1013.9 1013.9 0.0
23/10:18pm 8.3 6.5 7.2 93 0.5 ENE 6 7 3 4 1014.1 1014.1 0.0
23/10:00pm 9.0 7.4 7.9 93 0.5 E 6 7 3 4 1014.0 1014.0 0.0
23/09:30pm 9.9 8.4 9.0 94 0.4 SSE 7 9 4 5 1014.2 1014.2 0.0
23/09:00pm 9.6 8.1 8.4 92 0.6 NNE 6 7 3 4 1014.3 1014.3 0.0
23/08:30pm 10.1 9.5 8.9 92 0.6 NE 2 7 1 4 1014.3 1014.3 0.0
23/08:00pm 10.3 8.5 7.9 85 1.2 ENE 7 9 4 5 1014.3 1014.3 0.0
23/07:30pm 11.8 10.6 9.4 85 1.2 N 6 7 3 4 1014.3 1014.3 0.0
23/07:00pm 12.2 12.0 9.2 82 1.5 CALM 0 6 0 3 1014.4 1014.4 0.0
23/06:30pm 14.0 12.8 9.6 75 2.3 NNE 6 7 3 4 1014.4 1014.4 0.0
23/06:00pm 15.4 13.8 10.2 71 2.7 N 9 13 5 7 1014.4 1014.4 0.0
23/05:30pm 15.6 14.0 10.2 70 2.8 ENE 9 13 5 7 1014.2 1014.2 0.0
23/05:00pm 16.0 15.0 10.3 69 3.0 E 6 9 3 5 1014.2 1014.2 0.0
23/04:30pm 17.2 16.1 9.9 62 3.9 E 6 7 3 4 1014.0 1014.0 0.0
23/04:00pm 18.2 16.6 10.1 59 4.3 ENE 9 11 5 6 1013.9 1013.9 0.0
23/03:30pm 17.8 16.2 10.2 61 4.1 ENE 9 11 5 6 1014.0 1014.0 0.0

Other Formats:

Comma delimited format used in spreadsheet applications
http://www.bom.gov.au/fwo/IDV60801/IDV60801.94912.axf

JavaScript Object Notation format (JSON) in row-major order
http://www.bom.gov.au/fwo/IDV60801/IDV60801.94912.json